Pagina principale
METAR-TAF:

METAR-TAF

Aeroporti :

Spangdahlem, Germania

latitudine: 49-59N, longitudine: 006-42E, altezza: 365 m

Osservazione

Il bollettino è stato emesso 1 ora e 7 minuti fa, alle 22:56 UTC
Vento 3 kt da est/nord-est
Temperature 19°C
Umidità 60%
Pressione 1019 hPa
Visibilità 10 km o più
Cielo sereno

METAR: ETAD 142256Z AUTO 07003KT 9999 CLR 19/11 A3010 RMK AO2 SLP170 T01920110 402750111

Ora: 02:03 (00:03 UTC)


TAF: mancante

Osservazioni e previsioni meteorologiche di più di 4000 aeroporti (messaggi METAR e TAF).

Le stazioni disponibili sono rappresentate dai dischi gialli e rossi sulla carta.

Puntare il mouse per vedere il nome della stazione.

Clicca sopra per visualizzare le osservazioni e previsioni meteorologiche.

Per cambiare la mappa : fare clic sui pulsanti verdi con una croce nera per ingrandire, il pulsante verde con un trattino per diminuire, o sulla freccia verde per le mappe adiacenti.


METAR-TAF: